Time;durP1;ratioP1;P1;durP2;ratioP2;P2;SDS_P1;SDS_P2;PMS_P1;PMS_P2;Temp;Humidity;BMP_temperature;BMP_pressure;BME280_temperature;BME280_humidity;BME280_pressure;Samples;Min_cycle;Max_cycle;Signal;HPM_P1;HPM_P2
2021/11/23 00:00:58;;;;;;;3.72;1.27;;;23.10;36.40;;;;;;1852886;77;21164;-52
2021/11/23 00:03:25;;;;;;;7.97;1.70;;;23.10;36.30;;;;;;1852871;77;21618;-56
2021/11/23 00:05:52;;;;;;;5.92;1.30;;;23.20;36.20;;;;;;1852844;77;21125;-55
2021/11/23 00:08:21;;;;;;;3.15;1.45;;;23.20;36.20;;;;;;1852929;77;21572;-54
2021/11/23 00:10:49;;;;;;;3.77;1.50;;;23.20;36.20;;;;;;1852921;77;21079;-55
2021/11/23 00:13:17;;;;;;;3.90;1.37;;;23.20;36.30;;;;;;1852990;77;21587;-54
2021/11/23 00:15:45;;;;;;;6.28;1.77;;;23.20;36.20;;;;;;1852803;77;21088;-54
2021/11/23 00:18:13;;;;;;;5.37;1.40;;;23.20;36.10;;;;;;1852914;77;21113;-53
2021/11/23 00:20:42;;;;;;;6.70;1.70;;;23.20;36.00;;;;;;1852835;77;21074;-54
2021/11/23 00:23:11;;;;;;;3.90;1.57;;;23.20;35.90;;;;;;1852955;77;21156;-57
2021/11/23 00:25:39;;;;;;;4.10;2.02;;;23.20;35.70;;;;;;1852975;77;21095;-56
2021/11/23 00:28:06;;;;;;;3.35;1.40;;;23.10;35.70;;;;;;1853035;77;21149;-54
2021/11/23 00:30:34;;;;;;;4.55;1.67;;;23.10;35.80;;;;;;1852925;77;21551;-51
2021/11/23 00:33:01;;;;;;;4.37;1.30;;;23.10;35.80;;;;;;1852938;76;21552;-54
2021/11/23 00:35:29;;;;;;;5.15;1.87;;;23.10;35.90;;;;;;1853060;77;21162;-55
2021/11/23 00:37:57;;;;;;;4.83;1.62;;;23.10;36.00;;;;;;1852897;77;21060;-53
2021/11/23 00:40:24;;;;;;;4.55;1.82;;;23.10;36.00;;;;;;1853001;77;21528;-55
2021/11/23 00:42:52;;;;;;;4.20;2.00;;;23.10;36.10;;;;;;1852869;77;21063;-54
2021/11/23 00:45:19;;;;;;;3.65;1.50;;;23.10;36.10;;;;;;1852077;77;21517;-55
2021/11/23 00:47:47;;;;;;;3.55;1.40;;;23.10;36.20;;;;;;1847560;78;21884;-56
2021/11/23 00:50:15;;;;;;;3.40;1.30;;;23.10;36.30;;;;;;1847755;78;21606;-53
2021/11/23 00:52:44;;;;;;;4.42;1.30;;;23.10;36.60;;;;;;1847635;78;21588;-55
2021/11/23 00:55:12;;;;;;;3.17;1.45;;;23.10;36.70;;;;;;1847470;78;21186;-53
2021/11/23 00:57:39;;;;;;;3.10;2.05;;;23.10;36.80;;;;;;1847695;78;21590;-56
2021/11/23 01:00:10;;;;;;;6.97;1.87;;;23.10;36.90;;;;;;1847639;78;21236;-51
2021/11/23 01:02:37;;;;;;;6.65;1.62;;;23.10;37.10;;;;;;1847457;78;21116;-55
2021/11/23 01:05:06;;;;;;;5.65;1.57;;;23.10;37.20;;;;;;1847689;78;21079;-55
2021/11/23 01:07:33;;;;;;;4.90;1.17;;;23.10;37.20;;;;;;1847635;78;21150;-52
2021/11/23 01:10:02;;;;;;;4.33;1.45;;;23.10;37.20;;;;;;1847527;77;21588;-55
2021/11/23 01:12:29;;;;;;;14.10;1.90;;;23.10;37.30;;;;;;1847519;78;21555;-53
2021/11/23 01:14:57;;;;;;;9.28;1.67;;;23.10;37.40;;;;;;1847479;78;21255;-54
2021/11/23 01:17:25;;;;;;;15.58;2.20;;;23.10;37.60;;;;;;1847656;78;21529;-56
2021/11/23 01:19:52;;;;;;;10.13;2.17;;;23.10;37.70;;;;;;1847619;78;21157;-52
2021/11/23 01:22:19;;;;;;;9.60;1.75;;;23.10;37.90;;;;;;1847543;78;21120;-55
2021/11/23 01:24:47;;;;;;;3.95;1.52;;;23.10;38.00;;;;;;1847547;78;21079;-52
2021/11/23 01:27:14;;;;;;;6.60;1.60;;;23.10;38.10;;;;;;1847647;77;21536;-54
2021/11/23 01:29:42;;;;;;;4.78;1.55;;;23.20;38.20;;;;;;1847504;78;21168;-56
2021/11/23 01:32:09;;;;;;;4.35;1.35;;;23.10;38.20;;;;;;1847457;76;21693;-53
2021/11/23 01:34:37;;;;;;;10.50;1.22;;;23.20;38.30;;;;;;1847582;78;21646;-53
2021/11/23 01:37:04;;;;;;;3.37;1.20;;;23.20;38.40;;;;;;1847597;78;21513;-54
2021/11/23 01:39:32;;;;;;;3.58;1.10;;;23.20;38.40;;;;;;1847472;78;21061;-57
2021/11/23 01:42:00;;;;;;;4.83;1.10;;;23.20;38.40;;;;;;1847578;78;21122;-53
2021/11/23 01:44:27;;;;;;;4.28;1.20;;;23.20;38.40;;;;;;1847480;78;21260;-51
2021/11/23 01:46:55;;;;;;;6.95;1.10;;;23.20;38.30;;;;;;1850974;77;21633;-55
2021/11/23 01:49:23;;;;;;;6.28;1.10;;;23.20;38.10;;;;;;1852921;77;21472;-55
2021/11/23 01:51:50;;;;;;;9.68;2.08;;;23.20;38.00;;;;;;1852966;77;21465;-53
2021/11/23 01:54:18;;;;;;;3.47;1.37;;;23.20;37.90;;;;;;1852827;77;21686;-55
2021/11/23 01:56:47;;;;;;;5.60;1.40;;;23.30;37.90;;;;;;1852941;77;21540;-52
2021/11/23 01:59:14;;;;;;;5.25;1.12;;;23.20;37.90;;;;;;1852972;77;21543;-55
2021/11/23 02:01:42;;;;;;;2.85;0.98;;;23.20;38.00;;;;;;1852955;77;21083;-51
2021/11/23 02:04:09;;;;;;;1.92;0.88;;;23.20;38.10;;;;;;1852874;77;21150;-55
2021/11/23 02:06:37;;;;;;;4.80;1.20;;;23.20;38.00;;;;;;1852971;77;21524;-56
2021/11/23 02:09:04;;;;;;;2.33;1.10;;;23.20;38.00;;;;;;1852885;77;21508;-56
2021/11/23 02:11:32;;;;;;;3.08;0.90;;;23.20;38.00;;;;;;1852792;77;21162;-52
2021/11/23 02:13:59;;;;;;;2.75;1.10;;;23.20;38.00;;;;;;1852801;77;21055;-55
2021/11/23 02:16:27;;;;;;;3.02;1.37;;;23.20;38.00;;;;;;1852932;77;21132;-53
2021/11/23 02:18:54;;;;;;;2.40;1.15;;;23.30;38.20;;;;;;1852818;77;21047;-54
2021/11/23 02:21:22;;;;;;;3.35;1.35;;;23.20;38.30;;;;;;1852841;77;21153;-55
2021/11/23 02:23:49;;;;;;;4.15;1.05;;;23.20;38.40;;;;;;1852817;77;21125;-56
2021/11/23 02:26:17;;;;;;;2.35;1.00;;;23.30;38.50;;;;;;1852823;77;21640;-53
2021/11/23 02:28:44;;;;;;;3.62;0.90;;;23.20;38.40;;;;;;1852957;77;21532;-53
2021/11/23 02:31:12;;;;;;;6.92;1.32;;;23.20;38.40;;;;;;1852840;77;21536;-55
2021/11/23 02:33:40;;;;;;;3.42;1.00;;;23.20;38.50;;;;;;1852906;76;21634;-55
2021/11/23 02:36:08;;;;;;;3.17;1.20;;;23.20;38.60;;;;;;1852872;77;22028;-56
2021/11/23 02:38:36;;;;;;;6.03;0.98;;;23.20;38.60;;;;;;1852749;77;21052;-56
2021/11/23 02:41:05;;;;;;;3.98;1.00;;;23.20;38.70;;;;;;1852864;77;21051;-51
2021/11/23 02:43:32;;;;;;;5.55;1.47;;;23.10;38.70;;;;;;1853038;77;21154;-54
2021/11/23 02:46:00;;;;;;;4.90;1.70;;;23.20;38.80;;;;;;1852923;77;21145;-53
2021/11/23 02:48:28;;;;;;;3.42;1.05;;;23.10;39.40;;;;;;1852886;77;21130;-53
2021/11/23 02:51:09;;;;;;;3.40;0.88;;;23.10;38.90;;;;;;1852959;77;21516;-53
2021/11/23 02:53:25;;;;;;;4.37;0.90;;;23.20;39.00;;;;;;1848886;77;21525;-54
2021/11/23 02:55:52;;;;;;;2.77;1.20;;;23.10;39.00;;;;;;1852870;77;21540;-57
2021/11/23 02:58:20;;;;;;;5.53;0.88;;;23.10;39.10;;;;;;1852914;77;21145;-56
2021/11/23 03:00:48;;;;;;;3.77;0.90;;;23.20;39.20;;;;;;1852990;77;21192;-53
2021/11/23 03:03:16;;;;;;;4.92;1.00;;;23.10;39.20;;;;;;1852919;77;21548;-52
2021/11/23 03:05:44;;;;;;;3.70;1.00;;;23.10;39.20;;;;;;1852940;77;21036;-53
2021/11/23 03:08:11;;;;;;;5.50;1.35;;;23.20;39.30;;;;;;1853019;77;21754;-56
2021/11/23 03:10:39;;;;;;;2.08;0.78;;;23.20;39.30;;;;;;1852945;77;21221;-54
2021/11/23 03:13:06;;;;;;;7.40;1.20;;;23.20;39.40;;;;;;1852801;77;21056;-54
2021/11/23 03:15:33;;;;;;;2.25;1.00;;;23.20;39.50;;;;;;1852770;77;21048;-52
2021/11/23 03:18:01;;;;;;;3.72;1.40;;;23.20;39.60;;;;;;1852773;77;21098;-53
2021/11/23 03:20:29;;;;;;;5.50;1.92;;;23.20;39.60;;;;;;1852753;77;21513;-56
2021/11/23 03:22:58;;;;;;;3.95;1.60;;;23.20;39.70;;;;;;1852918;77;21552;-51
2021/11/23 03:25:26;;;;;;;3.65;1.70;;;23.30;39.80;;;;;;1852946;77;21133;-53
2021/11/23 03:27:54;;;;;;;4.25;1.60;;;23.30;39.80;;;;;;1852808;77;21082;-56
2021/11/23 03:30:24;;;;;;;4.42;1.50;;;23.30;39.80;;;;;;1852792;77;21149;-56
2021/11/23 03:32:53;;;;;;;4.55;1.42;;;23.30;39.80;;;;;;1852832;76;21540;-56
2021/11/23 03:35:22;;;;;;;4.58;1.80;;;23.30;39.90;;;;;;1852839;77;21146;-53
2021/11/23 03:37:52;;;;;;;11.28;2.00;;;23.30;39.90;;;;;;1853024;77;21067;-57
2021/11/23 03:40:20;;;;;;;9.78;2.00;;;23.30;39.90;;;;;;1852843;77;21618;-54
2021/11/23 03:42:48;;;;;;;11.70;2.05;;;23.30;39.90;;;;;;1852857;77;21126;-54
2021/11/23 03:45:15;;;;;;;12.03;2.83;;;23.30;40.00;;;;;;1852766;77;21051;-54
2021/11/23 03:47:43;;;;;;;9.43;1.40;;;23.30;40.00;;;;;;1849909;77;21169;-56
2021/11/23 03:50:14;;;;;;;8.25;1.40;;;23.30;40.10;;;;;;1847481;78;21162;-53
2021/11/23 03:52:42;;;;;;;4.55;1.42;;;23.30;40.20;;;;;;1847505;78;21592;-54
2021/11/23 03:55:14;;;;;;;3.75;1.02;;;23.30;40.20;;;;;;1847427;78;21043;-57
2021/11/23 03:57:40;;;;;;;7.35;1.25;;;23.30;40.20;;;;;;1847113;78;21108;-55
2021/11/23 04:00:08;;;;;;;6.10;1.60;;;23.30;40.10;;;;;;1847381;78;21067;-57
2021/11/23 04:02:36;;;;;;;2.45;0.80;;;23.30;40.20;;;;;;1847534;78;21068;-54
2021/11/23 04:05:05;;;;;;;3.67;1.10;;;23.30;40.10;;;;;;1847455;78;21029;-54
2021/11/23 04:07:32;;;;;;;3.42;1.10;;;23.30;40.10;;;;;;1847423;78;21067;-55
2021/11/23 04:09:59;;;;;;;2.92;0.90;;;23.30;40.10;;;;;;1847428;78;21120;-50
2021/11/23 04:12:27;;;;;;;3.55;1.10;;;23.30;40.20;;;;;;1847540;77;21591;-56
2021/11/23 04:14:56;;;;;;;4.30;1.10;;;23.30;40.30;;;;;;1847433;77;21461;-54
2021/11/23 04:17:23;;;;;;;1.45;0.82;;;23.30;40.30;;;;;;1847386;78;21097;-54
2021/11/23 04:19:51;;;;;;;3.25;1.02;;;23.30;40.30;;;;;;1847428;78;21550;-56
2021/11/23 04:22:18;;;;;;;3.67;1.00;;;23.30;40.30;;;;;;1847428;78;21118;-55
2021/11/23 04:24:46;;;;;;;7.33;1.25;;;23.30;40.30;;;;;;1847409;78;21109;-54
2021/11/23 04:27:13;;;;;;;7.47;1.37;;;23.30;40.20;;;;;;1847520;78;21545;-54
2021/11/23 04:29:41;;;;;;;4.08;0.98;;;23.30;40.20;;;;;;1847406;78;21584;-54
2021/11/23 04:32:09;;;;;;;6.22;1.52;;;23.30;40.20;;;;;;1847524;76;21662;-55
2021/11/23 04:34:36;;;;;;;6.35;1.70;;;23.30;40.20;;;;;;1847413;78;21055;-53
2021/11/23 04:37:04;;;;;;;3.77;1.55;;;23.30;40.20;;;;;;1847511;78;21493;-54
2021/11/23 04:39:32;;;;;;;4.80;1.90;;;23.30;40.30;;;;;;1847551;78;21182;-53
2021/11/23 04:41:59;;;;;;;4.90;1.92;;;23.30;40.30;;;;;;1847517;78;21627;-58
2021/11/23 04:44:27;;;;;;;3.65;1.80;;;23.30;40.30;;;;;;1847526;78;21143;-55
2021/11/23 04:46:54;;;;;;;6.40;1.50;;;23.30;40.30;;;;;;1847565;77;21532;-57
2021/11/23 04:49:24;;;;;;;5.87;1.30;;;23.40;40.40;;;;;;1852834;77;21482;-57
2021/11/23 04:51:52;;;;;;;7.35;1.30;;;23.40;40.40;;;;;;1853051;77;21142;-48
2021/11/23 04:54:19;;;;;;;4.35;1.42;;;23.30;40.40;;;;;;1852741;77;21106;-56
2021/11/23 04:56:47;;;;;;;9.15;2.27;;;23.30;40.40;;;;;;1852769;77;21044;-58
2021/11/23 04:59:15;;;;;;;6.35;1.95;;;23.30;40.60;;;;;;1852764;77;21055;-56
2021/11/23 05:01:42;;;;;;;3.75;1.72;;;23.30;40.60;;;;;;1852994;77;21070;-57
2021/11/23 05:04:10;;;;;;;4.53;1.47;;;23.30;40.60;;;;;;1852962;77;21079;-55
2021/11/23 05:06:37;;;;;;;6.15;1.52;;;23.30;40.60;;;;;;1852900;77;21080;-53
2021/11/23 05:09:05;;;;;;;3.65;1.25;;;23.30;40.70;;;;;;1852766;77;21488;-52
2021/11/23 05:11:35;;;;;;;4.85;1.17;;;23.30;40.70;;;;;;1852920;77;21158;-54
2021/11/23 05:14:03;;;;;;;7.90;1.35;;;23.40;40.70;;;;;;1852313;77;21536;-51
2021/11/23 05:16:30;;;;;;;4.00;1.60;;;23.40;40.60;;;;;;1852762;77;21538;-48
2021/11/23 05:18:57;;;;;;;4.55;1.20;;;23.40;40.50;;;;;;1852802;77;21091;-47
2021/11/23 05:21:25;;;;;;;6.35;0.95;;;23.40;40.40;;;;;;1852801;77;21075;-58
2021/11/23 05:23:52;;;;;;;6.47;1.17;;;23.50;40.40;;;;;;1852980;77;21059;-51
2021/11/23 05:26:19;;;;;;;5.67;1.20;;;23.50;40.40;;;;;;1852767;77;21149;-51
2021/11/23 05:28:47;;;;;;;3.95;1.02;;;23.50;40.40;;;;;;1852810;77;21028;-52
2021/11/23 05:31:14;;;;;;;1.75;0.80;;;23.50;40.40;;;;;;1852846;77;21075;-54
2021/11/23 05:33:42;;;;;;;4.97;1.07;;;23.50;40.40;;;;;;1852721;76;21103;-51
2021/11/23 05:36:09;;;;;;;3.15;0.90;;;23.50;41.00;;;;;;1852740;77;21114;-55
2021/11/23 05:38:37;;;;;;;3.33;1.12;;;23.50;40.40;;;;;;1852791;77;21587;-55
2021/11/23 05:41:04;;;;;;;4.33;1.40;;;23.50;40.40;;;;;;1852799;77;21543;-55
2021/11/23 05:43:32;;;;;;;4.60;1.00;;;23.40;40.40;;;;;;1852748;77;21075;-54
2021/11/23 05:46:00;;;;;;;4.97;1.62;;;23.50;40.40;;;;;;1852793;77;21118;-57
2021/11/23 05:48:27;;;;;;;3.08;1.45;;;23.50;40.40;;;;;;1850522;77;21072;-57
2021/11/23 05:50:54;;;;;;;5.30;1.47;;;23.50;40.60;;;;;;1847476;78;21572;-56
2021/11/23 05:53:22;;;;;;;5.90;1.98;;;23.50;40.60;;;;;;1847387;78;21096;-50
2021/11/23 05:55:49;;;;;;;3.62;1.50;;;23.50;40.60;;;;;;1847190;78;21103;-55
2021/11/23 05:58:17;;;;;;;6.15;1.70;;;23.50;40.50;;;;;;1847270;78;21590;-52
2021/11/23 06:00:44;;;;;;;4.85;1.70;;;23.50;40.50;;;;;;1847363;78;21174;-50
2021/11/23 06:03:12;;;;;;;7.25;2.17;;;23.50;40.40;;;;;;1847400;78;21020;-51
2021/11/23 06:05:39;;;;;;;4.30;1.87;;;23.50;40.60;;;;;;1847405;78;21699;-49
2021/11/23 06:08:07;;;;;;;7.33;2.50;;;23.50;40.40;;;;;;1847450;78;21131;-55
2021/11/23 06:10:34;;;;;;;3.80;1.30;;;23.50;40.40;;;;;;1847428;77;21071;-54
2021/11/23 06:13:02;;;;;;;4.45;1.30;;;23.50;40.40;;;;;;1847481;78;21590;-52
2021/11/23 06:15:29;;;;;;;6.45;1.77;;;23.50;40.90;;;;;;1847419;78;21175;-56
2021/11/23 06:18:02;;;;;;;6.85;1.22;;;23.50;40.40;;;;;;1847458;78;21109;-58
2021/11/23 06:20:31;;;;;;;3.67;1.40;;;23.50;40.40;;;;;;1847523;78;21117;-55
2021/11/23 06:22:59;;;;;;;5.87;1.60;;;23.50;40.40;;;;;;1847311;78;21477;-56
2021/11/23 06:25:27;;;;;;;4.37;1.27;;;23.50;40.50;;;;;;1847423;78;21446;-60
2021/11/23 06:27:54;;;;;;;3.95;0.85;;;23.50;40.50;;;;;;1847275;78;21121;-58
2021/11/23 06:30:22;;;;;;;3.22;1.27;;;23.50;40.40;;;;;;1847371;78;21083;-58
2021/11/23 06:32:49;;;;;;;3.77;1.00;;;23.50;40.40;;;;;;1847377;76;21630;-58
2021/11/23 06:35:17;;;;;;;3.17;1.40;;;23.50;40.90;;;;;;1847482;78;21557;-56
2021/11/23 06:37:45;;;;;;;1.80;1.07;;;23.60;40.30;;;;;;1847416;78;21149;-57
2021/11/23 06:40:12;;;;;;;3.22;1.42;;;23.60;40.20;;;;;;1847518;78;21564;-54
2021/11/23 06:42:40;;;;;;;2.37;1.30;;;23.50;40.10;;;;;;1847408;78;21123;-56
2021/11/23 06:45:08;;;;;;;4.12;2.12;;;23.60;40.20;;;;;;1847382;78;21048;-55
2021/11/23 06:47:36;;;;;;;4.03;1.70;;;23.60;40.10;;;;;;1847421;78;21184;-56
2021/11/23 06:50:04;;;;;;;6.72;2.10;;;23.60;40.20;;;;;;1852080;77;21099;-56
2021/11/23 06:52:33;;;;;;;5.22;1.92;;;23.60;40.10;;;;;;1852802;77;21062;-59
2021/11/23 06:55:00;;;;;;;4.15;1.40;;;23.60;40.00;;;;;;1852859;77;21568;-56
2021/11/23 06:57:28;;;;;;;3.55;1.50;;;23.60;40.00;;;;;;1852747;77;21145;-57
2021/11/23 06:59:55;;;;;;;5.15;2.15;;;23.50;39.90;;;;;;1852604;77;21477;-55
2021/11/23 07:02:23;;;;;;;7.95;2.72;;;23.50;39.90;;;;;;1852686;77;21180;-53
2021/11/23 07:04:50;;;;;;;8.98;2.62;;;23.50;40.00;;;;;;1852693;77;21127;-55
2021/11/23 07:07:18;;;;;;;6.50;2.85;;;23.50;40.00;;;;;;1852682;77;21031;-52
2021/11/23 07:09:46;;;;;;;5.67;2.20;;;23.50;40.00;;;;;;1852690;77;21084;-54
2021/11/23 07:12:13;;;;;;;3.95;2.08;;;23.50;40.10;;;;;;1852730;77;21535;-54
2021/11/23 07:14:41;;;;;;;4.42;2.00;;;23.50;39.90;;;;;;1852625;77;21145;-58
2021/11/23 07:17:08;;;;;;;5.30;2.42;;;23.50;40.00;;;;;;1852635;77;21083;-57
2021/11/23 07:19:35;;;;;;;5.72;2.00;;;23.50;39.90;;;;;;1852707;77;21075;-56
2021/11/23 07:22:03;;;;;;;5.58;2.02;;;23.50;39.90;;;;;;1852805;77;21032;-50
2021/11/23 07:24:31;;;;;;;4.90;2.05;;;23.50;39.70;;;;;;1852705;77;21567;-56
2021/11/23 07:26:58;;;;;;;5.20;2.00;;;23.50;39.70;;;;;;1852785;77;21508;-54
2021/11/23 07:29:26;;;;;;;5.37;1.62;;;23.50;39.80;;;;;;1852676;77;21573;-52
2021/11/23 07:31:53;;;;;;;6.60;1.77;;;23.50;39.80;;;;;;1852661;76;21103;-52
2021/11/23 07:34:21;;;;;;;9.45;1.85;;;23.50;39.80;;;;;;1852713;77;21596;-53
2021/11/23 07:36:48;;;;;;;4.03;1.42;;;23.50;40.00;;;;;;1852706;77;21075;-56
2021/11/23 07:39:15;;;;;;;4.28;1.82;;;23.50;39.90;;;;;;1852678;77;21149;-53
2021/11/23 07:41:43;;;;;;;4.58;1.50;;;23.60;40.00;;;;;;1852682;77;21185;-49
2021/11/23 07:44:11;;;;;;;2.85;1.40;;;23.60;40.00;;;;;;1852788;77;21702;-53
2021/11/23 07:46:39;;;;;;;3.15;1.40;;;23.60;39.90;;;;;;1852719;77;21217;-50
2021/11/23 07:49:06;;;;;;;4.12;1.50;;;23.60;39.90;;;;;;1850871;77;21716;-51
2021/11/23 07:51:35;;;;;;;3.87;1.17;;;23.70;40.00;;;;;;1847287;78;21142;-54
2021/11/23 07:54:04;;;;;;;2.45;1.05;;;23.70;39.90;;;;;;1847316;78;21079;-49
2021/11/23 07:56:31;;;;;;;4.90;1.45;;;23.70;40.00;;;;;;1847324;78;21567;-49
2021/11/23 07:58:59;;;;;;;5.35;1.22;;;23.70;40.00;;;;;;1847358;77;21075;-45
2021/11/23 08:01:26;;;;;;;4.15;1.55;;;23.70;40.00;;;;;;1847295;78;21072;-49
2021/11/23 08:03:54;;;;;;;5.75;1.50;;;23.60;39.80;;;;;;1847425;78;21569;-44
2021/11/23 08:06:21;;;;;;;6.08;1.52;;;23.70;39.80;;;;;;1847260;78;21681;-50
2021/11/23 08:08:49;;;;;;;4.20;1.32;;;23.70;39.70;;;;;;1847333;78;21578;-46
2021/11/23 08:11:16;;;;;;;2.20;1.20;;;23.70;39.60;;;;;;1847451;78;21536;-51
2021/11/23 08:13:44;;;;;;;3.60;1.50;;;23.70;39.60;;;;;;1847495;78;21598;-51
2021/11/23 08:16:11;;;;;;;2.30;1.00;;;23.70;39.70;;;;;;1847311;78;21564;-51
2021/11/23 08:18:38;;;;;;;3.15;1.27;;;23.60;39.60;;;;;;1847436;78;21146;-55
2021/11/23 08:21:06;;;;;;;5.78;1.25;;;23.70;39.50;;;;;;1847389;78;21095;-57
2021/11/23 08:23:33;;;;;;;3.10;1.30;;;23.70;39.60;;;;;;1847339;78;21044;-51
2021/11/23 08:26:01;;;;;;;4.35;1.10;;;23.70;39.60;;;;;;1847493;78;21544;-51
2021/11/23 08:28:28;;;;;;;4.97;1.50;;;23.70;39.60;;;;;;1847465;78;21146;-53
2021/11/23 08:30:56;;;;;;;4.37;1.02;;;23.70;39.60;;;;;;1847420;78;21541;-47
2021/11/23 08:33:24;;;;;;;3.27;0.93;;;23.70;39.50;;;;;;1847364;76;21104;-56
2021/11/23 08:35:52;;;;;;;9.53;1.30;;;23.70;39.40;;;;;;1847414;78;21115;-54
2021/11/23 08:38:20;;;;;;;4.22;1.15;;;23.70;39.40;;;;;;1847618;78;21578;-54
2021/11/23 08:40:47;;;;;;;4.08;1.15;;;23.70;39.40;;;;;;1847541;78;21541;-56
2021/11/23 08:43:15;;;;;;;3.98;1.45;;;23.70;39.50;;;;;;1847415;78;21112;-56
2021/11/23 08:45:45;;;;;;;6.83;1.32;;;23.70;40.10;;;;;;1847224;78;21587;-58
2021/11/23 08:48:12;;;;;;;5.12;1.40;;;23.70;39.60;;;;;;1847227;78;21111;-57
2021/11/23 08:50:39;;;;;;;4.97;1.50;;;23.70;39.60;;;;;;1847480;77;21119;-57
2021/11/23 08:53:10;;;;;;;3.20;1.40;;;23.70;39.60;;;;;;1847422;78;21099;-52
2021/11/23 08:55:38;;;;;;;3.83;1.22;;;23.60;40.10;;;;;;1847363;78;21532;-52
2021/11/23 08:58:06;;;;;;;6.03;1.92;;;23.60;39.60;;;;;;1847576;78;21072;-56
2021/11/23 09:00:34;;;;;;;2.70;1.42;;;23.70;39.70;;;;;;1847379;78;21224;-54
2021/11/23 09:03:01;;;;;;;7.22;1.85;;;23.70;39.70;;;;;;1847307;78;21063;-55
2021/11/23 09:05:36;;;;;;;4.47;1.55;;;23.70;39.80;;;;;;1847490;78;21072;-55
2021/11/23 09:08:03;;;;;;;2.40;1.70;;;23.70;39.90;;;;;;1847437;78;21147;-57
2021/11/23 09:10:34;;;;;;;3.10;1.90;;;23.60;39.80;;;;;;1847412;78;21120;-55
2021/11/23 09:13:01;;;;;;;3.93;1.87;;;23.60;39.90;;;;;;1847621;78;21552;-55
2021/11/23 09:15:29;;;;;;;2.77;1.10;;;23.60;39.90;;;;;;1847394;78;21067;-56
2021/11/23 09:18:00;;;;;;;5.58;2.02;;;23.60;39.90;;;;;;1847316;78;21126;-56
2021/11/23 09:20:26;;;;;;;4.22;1.55;;;23.70;40.00;;;;;;1846860;78;21167;-54
2021/11/23 09:22:54;;;;;;;3.50;1.52;;;23.60;39.90;;;;;;1847585;78;21129;-55
2021/11/23 09:25:21;;;;;;;6.83;1.30;;;23.60;40.00;;;;;;1847502;78;21501;-52
2021/11/23 09:27:48;;;;;;;6.95;2.08;;;23.60;39.90;;;;;;1847405;78;21595;-54
2021/11/23 09:30:17;;;;;;;6.00;1.27;;;23.60;40.00;;;;;;1847329;78;21072;-51
2021/11/23 09:32:47;;;;;;;9.63;1.62;;;23.60;39.90;;;;;;1847316;76;21103;-53
2021/11/23 09:35:14;;;;;;;5.62;1.50;;;23.60;39.90;;;;;;1847003;78;21112;-54
2021/11/23 09:37:43;;;;;;;5.60;1.80;;;23.60;39.80;;;;;;1847342;78;21523;-54
2021/11/23 09:40:11;;;;;;;6.20;1.20;;;23.60;39.80;;;;;;1847386;78;21110;-48
2021/11/23 09:42:39;;;;;;;4.10;1.07;;;23.60;40.00;;;;;;1847426;78;21602;-50
2021/11/23 09:45:08;;;;;;;4.12;1.12;;;23.70;40.10;;;;;;1847338;78;21123;-53
2021/11/23 09:47:35;;;;;;;4.00;1.20;;;23.70;40.10;;;;;;1847453;78;21532;-47
2021/11/23 09:50:03;;;;;;;5.45;1.30;;;23.70;40.20;;;;;;1847282;77;21115;-55
2021/11/23 09:52:33;;;;;;;4.72;1.40;;;23.70;40.20;;;;;;1847411;78;21201;-51
2021/11/23 09:55:00;;;;;;;2.10;1.02;;;23.70;40.30;;;;;;1847462;78;21646;-55
2021/11/23 09:57:28;;;;;;;5.08;1.32;;;23.70;40.40;;;;;;1847351;78;21129;-48
2021/11/23 09:59:55;;;;;;;6.83;1.42;;;23.70;40.40;;;;;;1847464;77;21137;-51
2021/11/23 10:02:28;;;;;;;4.15;1.70;;;23.70;40.40;;;;;;1847370;78;21080;-54
2021/11/23 10:05:04;;;;;;;3.92;1.45;;;23.70;40.30;;;;;;1846842;78;21051;-54
2021/11/23 10:07:43;;;;;;;7.03;1.95;;;23.70;40.30;;;;;;1847469;78;21513;-51
2021/11/23 10:10:16;;;;;;;6.20;2.10;;;23.70;40.30;;;;;;1847464;78;21645;-55
2021/11/23 10:12:55;;;;;;;8.45;1.87;;;23.70;40.40;;;;;;1845776;78;21048;-50
2021/11/23 10:15:28;;;;;;;5.08;2.20;;;23.70;40.40;;;;;;1847377;78;21650;-51
2021/11/23 10:17:57;;;;;;;5.15;1.42;;;23.70;40.20;;;;;;1847449;78;21071;-55
2021/11/23 10:20:36;;;;;;;7.35;1.70;;;23.70;40.50;;;;;;1845566;78;21118;-55
2021/11/23 10:23:25;;;;;;;5.03;1.55;;;23.70;40.40;;;;;;1847457;78;21080;-51
2021/11/23 10:25:57;;;;;;;5.87;1.75;;;23.70;40.40;;;;;;1847471;78;21466;-52
2021/11/23 10:28:29;;;;;;;4.97;1.57;;;23.70;40.50;;;;;;1847421;78;21658;-51
2021/11/23 10:30:56;;;;;;;;;;;23.70;40.60;;;;;;1850124;78;21520;-51
2021/11/23 10:33:23;;;;;;;2.52;0.75;;;23.50;40.70;;;;;;1847285;76;20157;-55
2021/11/23 10:35:52;;;;;;;4.33;0.95;;;23.50;41.00;;;;;;1847302;78;21709;-55
2021/11/23 10:38:21;;;;;;;4.20;1.02;;;23.60;40.70;;;;;;1847336;78;21056;-52
2021/11/23 10:40:49;;;;;;;3.25;1.30;;;23.70;40.80;;;;;;1847410;78;21509;-54
2021/11/23 10:43:19;;;;;;;3.83;1.05;;;23.70;40.70;;;;;;1847466;78;21149;-56
2021/11/23 10:45:52;;;;;;;2.05;0.70;;;23.70;40.70;;;;;;1847362;78;21074;-52
2021/11/23 10:48:23;;;;;;;4.12;1.00;;;23.70;40.70;;;;;;1847411;78;21091;-52
2021/11/23 10:51:08;;;;;;;4.37;0.90;;;23.70;40.60;;;;;;1848858;77;21722;-52
2021/11/23 10:53:36;;;;;;;5.10;0.80;;;23.70;40.50;;;;;;1850000;77;21129;-53
2021/11/23 10:56:11;;;;;;;7.97;0.98;;;23.70;40.50;;;;;;1850120;77;21115;-57
2021/11/23 10:58:39;;;;;;;4.72;0.90;;;23.70;40.50;;;;;;1849981;77;21143;-52
2021/11/23 11:01:06;;;;;;;5.12;0.98;;;23.70;40.50;;;;;;1850198;77;21524;-52
2021/11/23 11:03:34;;;;;;;4.85;0.85;;;23.70;40.40;;;;;;1850051;77;21057;-60
2021/11/23 11:06:03;;;;;;;2.92;0.80;;;23.70;40.30;;;;;;1850053;77;21071;-54
2021/11/23 11:08:34;;;;;;;4.47;1.10;;;23.80;40.50;;;;;;1850018;77;21157;-56
2021/11/23 11:11:02;;;;;;;7.78;0.90;;;23.80;40.50;;;;;;1850125;77;21725;-55
2021/11/23 11:13:29;;;;;;;5.72;1.10;;;23.80;40.30;;;;;;1850150;77;21521;-55
2021/11/23 11:15:57;;;;;;;4.87;1.00;;;23.80;40.30;;;;;;1850061;77;21513;-52
2021/11/23 11:18:25;;;;;;;5.20;1.37;;;23.80;40.30;;;;;;1849984;77;21551;-58
2021/11/23 11:20:56;;;;;;;7.08;1.10;;;23.80;40.30;;;;;;1850016;77;21075;-57
2021/11/23 11:23:28;;;;;;;3.72;0.78;;;23.80;40.30;;;;;;1849936;77;21555;-56
2021/11/23 11:26:25;;;;;;;3.62;0.82;;;23.80;40.20;;;;;;1850164;77;21568;-56
2021/11/23 11:28:52;;;;;;;9.73;1.60;;;23.80;40.20;;;;;;1848110;77;21108;-58
2021/11/23 11:31:41;;;;;;;6.53;1.75;;;23.80;40.40;;;;;;1849953;77;21533;-57
2021/11/23 11:34:21;;;;;;;5.03;1.42;;;23.70;40.40;;;;;;1849068;77;21145;-57
2021/11/23 11:36:51;;;;;;;5.15;1.40;;;23.70;40.40;;;;;;1850013;77;21178;-56
2021/11/23 11:39:40;;;;;;;6.17;1.60;;;23.70;40.40;;;;;;1847574;77;21599;-53
2021/11/23 11:42:09;;;;;;;2.85;1.30;;;23.70;40.30;;;;;;1849965;77;21119;-52
2021/11/23 11:44:38;;;;;;;6.30;1.65;;;23.70;40.40;;;;;;1850051;77;21016;-49
2021/11/23 11:47:07;;;;;;;5.37;1.82;;;23.70;40.40;;;;;;1850047;77;21239;-53
2021/11/23 11:49:53;;;;;;;3.58;1.60;;;23.80;40.30;;;;;;1850236;77;21128;-55
2021/11/23 11:52:30;;;;;;;7.00;1.55;;;23.80;40.20;;;;;;1850231;77;21272;-50
2021/11/23 11:55:18;;;;;;;2.98;1.50;;;23.80;40.30;;;;;;1850133;77;21091;-52
2021/11/23 11:57:47;;;;;;;4.60;1.60;;;23.80;40.20;;;;;;1850095;77;21450;-51
2021/11/23 12:00:34;;;;;;;3.85;1.37;;;23.70;40.10;;;;;;1850180;77;21121;-52
2021/11/23 12:03:13;;;;;;;3.58;1.17;;;23.80;40.20;;;;;;1849830;77;21079;-55
2021/11/23 12:05:58;;;;;;;5.45;0.90;;;23.70;40.30;;;;;;1826265;77;21158;-53
2021/11/23 12:08:33;;;;;;;3.35;1.07;;;23.70;40.40;;;;;;1850188;77;21579;-55
2021/11/23 12:10:58;;;;;;;2.62;1.10;;;23.70;40.50;;;;;;1848575;77;21152;-54
2021/11/23 12:13:37;;;;;;;4.33;1.07;;;23.80;40.50;;;;;;1850150;77;21112;-56
2021/11/23 12:16:13;;;;;;;2.83;0.93;;;23.80;40.40;;;;;;1849329;77;21079;-57
2021/11/23 12:19:04;;;;;;;5.50;1.02;;;23.80;40.30;;;;;;1850288;77;21180;-55
2021/11/23 12:21:34;;;;;;;5.30;0.90;;;23.80;40.50;;;;;;1850320;77;21083;-55
2021/11/23 12:24:03;;;;;;;4.67;1.20;;;23.80;40.40;;;;;;1850108;77;21086;-51
2021/11/23 12:26:36;;;;;;;5.62;1.60;;;23.80;40.30;;;;;;1850105;77;21137;-53
2021/11/23 12:29:05;;;;;;;5.15;1.60;;;23.80;40.10;;;;;;1850278;77;21123;-56
2021/11/23 12:31:35;;;;;;;6.15;1.70;;;23.80;40.00;;;;;;1850039;76;21087;-57
2021/11/23 12:34:07;;;;;;;7.22;1.25;;;23.80;39.90;;;;;;1849551;76;21071;-54
2021/11/23 12:36:38;;;;;;;6.40;1.45;;;23.80;40.00;;;;;;1850284;77;21024;-55
2021/11/23 12:39:12;;;;;;;5.45;1.17;;;23.80;40.00;;;;;;1848227;77;21047;-54
2021/11/23 12:41:39;;;;;;;10.03;2.08;;;23.80;40.00;;;;;;1850194;77;21481;-55
2021/11/23 12:44:21;;;;;;;8.40;2.25;;;23.80;40.10;;;;;;1850049;77;21136;-56
2021/11/23 12:46:54;;;;;;;15.38;2.45;;;23.80;40.20;;;;;;1850132;77;21068;-48
2021/11/23 12:49:23;;;;;;;11.00;1.65;;;23.80;40.30;;;;;;1849202;77;21134;-56
2021/11/23 12:51:59;;;;;;;8.40;1.75;;;23.80;40.10;;;;;;1848804;77;21541;-57
2021/11/23 12:54:31;;;;;;;5.05;1.70;;;23.90;40.10;;;;;;1847363;78;21524;-53
2021/11/23 12:57:05;;;;;;;7.37;1.12;;;23.90;40.10;;;;;;1847430;78;21125;-56